sensor_id;sensor_type;location;lat;lon;timestamp;pressure;altitude;pressure_sealevel;temperature;humidity
64544;BME280;50936;51.660;5.616;2023-08-06T00:01:46;100031.63;;;27.54;50.79
64544;BME280;50936;51.660;5.616;2023-08-06T00:04:13;100033.09;;;27.57;50.64
64544;BME280;50936;51.660;5.616;2023-08-06T00:06:40;100031.63;;;27.54;50.79
64544;BME280;50936;51.660;5.616;2023-08-06T00:09:07;100031.63;;;27.54;50.66
64544;BME280;50936;51.660;5.616;2023-08-06T00:11:34;100037.19;;;27.54;50.72
64544;BME280;50936;51.660;5.616;2023-08-06T00:14:00;100046.09;;;27.56;50.76
64544;BME280;50936;51.660;5.616;2023-08-06T00:16:27;100037.19;;;27.54;50.78
64544;BME280;50936;51.660;5.616;2023-08-06T00:18:54;100026.09;;;27.54;50.58
64544;BME280;50936;51.660;5.616;2023-08-06T00:21:21;100028.25;;;27.52;50.73
64544;BME280;50936;51.660;5.616;2023-08-06T00:23:48;100014.41;;;27.52;50.67
64544;BME280;50936;51.660;5.616;2023-08-06T00:26:15;100021.38;;;27.55;50.63
64544;BME280;50936;51.660;5.616;2023-08-06T00:28:42;100028.25;;;27.52;50.75
64544;BME280;50936;51.660;5.616;2023-08-06T00:31:09;100018.00;;;27.53;50.79
64544;BME280;50936;51.660;5.616;2023-08-06T00:33:36;100015.00;;;27.54;50.65
64544;BME280;50936;51.660;5.616;2023-08-06T00:36:03;100013.31;;;27.53;50.91
64544;BME280;50936;51.660;5.616;2023-08-06T00:38:29;100012.47;;;27.53;50.92
64544;BME280;50936;51.660;5.616;2023-08-06T00:40:56;100015.47;;;27.51;50.73
64544;BME280;50936;51.660;5.616;2023-08-06T00:43:23;100007.16;;;27.51;50.73
64544;BME280;50936;51.660;5.616;2023-08-06T00:45:50;100013.31;;;27.53;50.78
64544;BME280;50936;51.660;5.616;2023-08-06T00:48:17;100007.66;;;27.48;50.69
64544;BME280;50936;51.660;5.616;2023-08-06T00:50:45;100005.25;;;27.52;50.72
64544;BME280;50936;51.660;5.616;2023-08-06T00:53:12;100007.16;;;27.51;50.65
64544;BME280;50936;51.660;5.616;2023-08-06T00:55:41;100008.84;;;27.52;50.72
64544;BME280;50936;51.660;5.616;2023-08-06T00:58:12;100003.31;;;27.52;50.84
64544;BME280;50936;51.660;5.616;2023-08-06T01:00:40;100009.91;;;27.51;50.59
64544;BME280;50936;51.660;5.616;2023-08-06T01:03:07;100015.13;;;27.48;50.70
64544;BME280;50936;51.660;5.616;2023-08-06T01:05:34;100011.63;;;27.52;50.61
64544;BME280;50936;51.660;5.616;2023-08-06T01:11:13;100003.06;;;27.54;50.58
64544;BME280;50936;51.660;5.616;2023-08-06T01:13:50;100003.53;;;27.51;50.69
64544;BME280;50936;51.660;5.616;2023-08-06T01:16:26;100006.06;;;27.52;50.53
64544;BME280;50936;51.660;5.616;2023-08-06T01:18:53;100005.47;;;27.50;50.54
64544;BME280;50936;51.660;5.616;2023-08-06T01:21:20;99994.00;;;27.46;50.72
64544;BME280;50936;51.660;5.616;2023-08-06T01:23:48;100001.00;;;27.49;50.38
64544;BME280;50936;51.660;5.616;2023-08-06T01:26:25;100010.41;;;27.48;50.77
64544;BME280;50936;51.660;5.616;2023-08-06T01:29:06;100003.53;;;27.51;50.61
64544;BME280;50936;51.660;5.616;2023-08-06T01:31:41;100001.25;;;27.48;50.69
64544;BME280;50936;51.660;5.616;2023-08-06T01:34:15;100001.00;;;27.49;50.79
64544;BME280;50936;51.660;5.616;2023-08-06T01:36:45;100002.56;;;27.45;50.55
64544;BME280;50936;51.660;5.616;2023-08-06T01:39:12;100005.34;;;27.45;50.64
64544;BME280;50936;51.660;5.616;2023-08-06T01:41:39;99992.06;;;27.47;50.55
64544;BME280;50936;51.660;5.616;2023-08-06T01:44:06;100007.03;;;27.46;50.75
64544;BME280;50936;51.660;5.616;2023-08-06T01:46:32;99999.78;;;27.45;50.65
64544;BME280;50936;51.660;5.616;2023-08-06T01:48:59;99996.78;;;27.46;50.76
64544;BME280;50936;51.660;5.616;2023-08-06T01:51:26;99999.31;;;27.48;50.48
64544;BME280;50936;51.660;5.616;2023-08-06T01:53:53;99997.84;;;27.45;50.56
64544;BME280;50936;51.660;5.616;2023-08-06T01:56:20;99999.78;;;27.45;50.63
64544;BME280;50936;51.660;5.616;2023-08-06T01:58:47;99995.94;;;27.46;50.72
64544;BME280;50936;51.660;5.616;2023-08-06T02:01:14;99995.94;;;27.46;50.70
64544;BME280;50936;51.660;5.616;2023-08-06T02:03:41;99999.78;;;27.45;50.49
64544;BME280;50936;51.660;5.616;2023-08-06T02:06:09;99997.03;;;27.45;50.77
64544;BME280;50936;51.660;5.616;2023-08-06T02:08:36;100000.63;;;27.45;50.69
64544;BME280;50936;51.660;5.616;2023-08-06T02:11:03;99999.78;;;27.45;50.65
64544;BME280;50936;51.660;5.616;2023-08-06T02:13:30;99999.78;;;27.45;50.65
64544;BME280;50936;51.660;5.616;2023-08-06T02:15:57;100002.56;;;27.45;50.55
64544;BME280;50936;51.660;5.616;2023-08-06T02:18:24;100007.03;;;27.46;50.52
64544;BME280;50936;51.660;5.616;2023-08-06T02:21:00;100000.41;;;27.47;50.58
64544;BME280;50936;51.660;5.616;2023-08-06T02:23:28;99996.19;;;27.44;50.62
64544;BME280;50936;51.660;5.616;2023-08-06T02:26:04;99992.31;;;27.45;50.42
64544;BME280;50936;51.660;5.616;2023-08-06T02:28:32;99997.03;;;27.45;50.75
64544;BME280;50936;51.660;5.616;2023-08-06T02:30:59;99990.63;;;27.44;50.65
64544;BME280;50936;51.660;5.616;2023-08-06T02:33:27;99993.19;;;27.46;50.70
64544;BME280;50936;51.660;5.616;2023-08-06T02:36:02;99979.31;;;27.46;50.58
64544;BME280;50936;51.660;5.616;2023-08-06T02:38:32;99984.84;;;27.46;50.57
64544;BME280;50936;51.660;5.616;2023-08-06T02:41:02;99975.06;;;27.43;50.70
64544;BME280;50936;51.660;5.616;2023-08-06T02:43:30;99985.31;;;27.43;50.53
64544;BME280;50936;51.660;5.616;2023-08-06T02:46:00;99972.53;;;27.42;50.55
64544;BME280;50936;51.660;5.616;2023-08-06T02:48:28;99972.06;;;27.45;50.52
64544;BME280;50936;51.660;5.616;2023-08-06T02:50:58;99977.63;;;27.45;50.66
64544;BME280;50936;51.660;5.616;2023-08-06T02:53:28;99971.22;;;27.44;50.43
64544;BME280;50936;51.660;5.616;2023-08-06T02:55:57;99981.50;;;27.44;50.48
64544;BME280;50936;51.660;5.616;2023-08-06T02:58:32;99976.78;;;27.44;50.52
64544;BME280;50936;51.660;5.616;2023-08-06T03:01:11;99974.25;;;27.43;50.42
64544;BME280;50936;51.660;5.616;2023-08-06T03:03:47;99987.03;;;27.44;50.57
64544;BME280;50936;51.660;5.616;2023-08-06T03:06:22;99972.53;;;27.42;50.42
64544;BME280;50936;51.660;5.616;2023-08-06T03:08:52;99970.41;;;27.44;50.51
64544;BME280;50936;51.660;5.616;2023-08-06T03:11:19;99977.00;;;27.43;50.47
64544;BME280;50936;51.660;5.616;2023-08-06T03:13:49;99979.78;;;27.43;50.41
64544;BME280;50936;51.660;5.616;2023-08-06T03:16:16;99977.25;;;27.41;50.54
64544;BME280;50936;51.660;5.616;2023-08-06T03:18:43;99965.56;;;27.39;50.51
64544;BME280;50936;51.660;5.616;2023-08-06T03:21:10;99982.31;;;27.44;50.38
64544;BME280;50936;51.660;5.616;2023-08-06T03:23:37;99968.69;;;27.43;50.54
64544;BME280;50936;51.660;5.616;2023-08-06T03:26:05;99973.41;;;27.42;50.59
64544;BME280;50936;51.660;5.616;2023-08-06T03:28:32;99975.94;;;27.44;50.45
64544;BME280;50936;51.660;5.616;2023-08-06T03:31:03;99970.88;;;27.41;50.56
64544;BME280;50936;51.660;5.616;2023-08-06T03:33:37;99971.47;;;27.43;50.35
64544;BME280;50936;51.660;5.616;2023-08-06T03:36:09;99974.25;;;27.43;50.70
64544;BME280;50936;51.660;5.616;2023-08-06T03:38:36;99969.16;;;27.40;50.49
64544;BME280;50936;51.660;5.616;2023-08-06T03:41:06;99972.81;;;27.40;50.50
64544;BME280;50936;51.660;5.616;2023-08-06T03:43:33;99979.78;;;27.43;50.37
64544;BME280;50936;51.660;5.616;2023-08-06T03:46:03;99977.47;;;27.40;50.46
64544;BME280;50936;51.660;5.616;2023-08-06T03:48:29;99980.63;;;27.43;50.26
64544;BME280;50936;51.660;5.616;2023-08-06T03:50:57;99979.19;;;27.41;50.45
64544;BME280;50936;51.660;5.616;2023-08-06T03:53:25;99983.63;;;27.42;50.33
64544;BME280;50936;51.660;5.616;2023-08-06T03:55:52;99973.41;;;27.42;50.39
64544;BME280;50936;51.660;5.616;2023-08-06T03:58:19;99967.25;;;27.40;50.47
64544;BME280;50936;51.660;5.616;2023-08-06T04:00:45;99974.25;;;27.43;50.41
64544;BME280;50936;51.660;5.616;2023-08-06T04:03:13;99973.03;;;27.39;50.47
64544;BME280;50936;51.660;5.616;2023-08-06T04:05:41;99970.25;;;27.39;50.09
64544;BME280;50936;51.660;5.616;2023-08-06T04:08:08;99968.94;;;27.41;50.34
64544;BME280;50936;51.660;5.616;2023-08-06T04:10:35;99974.72;;;27.40;50.42
64544;BME280;50936;51.660;5.616;2023-08-06T04:13:02;99979.41;;;27.39;50.39
64544;BME280;50936;51.660;5.616;2023-08-06T04:15:29;99973.63;;;27.41;50.35
64544;BME280;50936;51.660;5.616;2023-08-06T04:17:56;99986.03;;;27.38;50.43
64544;BME280;50936;51.660;5.616;2023-08-06T04:20:24;99986.91;;;27.39;50.49
64544;BME280;50936;51.660;5.616;2023-08-06T04:22:54;99987.50;;;27.41;50.39
64544;BME280;50936;51.660;5.616;2023-08-06T04:25:21;99989.66;;;27.39;50.40
64544;BME280;50936;51.660;5.616;2023-08-06T04:27:50;100000.75;;;27.39;50.37
64544;BME280;50936;51.660;5.616;2023-08-06T04:30:17;100005.44;;;27.38;50.35
64544;BME280;50936;51.660;5.616;2023-08-06T04:32:44;100003.53;;;27.39;50.54
64544;BME280;50936;51.660;5.616;2023-08-06T04:35:11;100001.59;;;27.39;50.40
64544;BME280;50936;51.660;5.616;2023-08-06T04:37:39;100005.19;;;27.40;50.36
64544;BME280;50936;51.660;5.616;2023-08-06T04:40:06;99995.81;;;27.41;50.13
64544;BME280;50936;51.660;5.616;2023-08-06T04:42:33;99993.50;;;27.38;50.40
64544;BME280;50936;51.660;5.616;2023-08-06T04:45:03;99994.13;;;27.40;50.10
64544;BME280;50936;51.660;5.616;2023-08-06T04:47:31;99996.03;;;27.39;50.33
64544;BME280;50936;51.660;5.616;2023-08-06T04:49:58;99991.34;;;27.40;50.43
64544;BME280;50936;51.660;5.616;2023-08-06T04:52:25;99997.75;;;27.40;50.40
64544;BME280;50936;51.660;5.616;2023-08-06T04:54:54;100005.81;;;27.42;50.22
64544;BME280;50936;51.660;5.616;2023-08-06T04:57:21;100009.44;;;27.42;50.19
64544;BME280;50936;51.660;5.616;2023-08-06T04:59:48;100015.22;;;27.41;50.22
64544;BME280;50936;51.660;5.616;2023-08-06T05:02:15;100015.81;;;27.43;50.42
64544;BME280;50936;51.660;5.616;2023-08-06T05:04:42;100013.06;;;27.43;50.11
64544;BME280;50936;51.660;5.616;2023-08-06T05:07:10;100008.84;;;27.40;50.36
64544;BME280;50936;51.660;5.616;2023-08-06T05:09:37;100017.75;;;27.42;50.46
64544;BME280;50936;51.660;5.616;2023-08-06T05:12:06;100018.00;;;27.41;50.49
64544;BME280;50936;51.660;5.616;2023-08-06T05:14:33;100023.31;;;27.42;50.33
64544;BME280;50936;51.660;5.616;2023-08-06T05:17:00;100028.00;;;27.42;50.33
64544;BME280;50936;51.660;5.616;2023-08-06T05:19:28;100028.00;;;27.42;50.38
64544;BME280;50936;51.660;5.616;2023-08-06T05:21:55;100026.31;;;27.41;50.40
64544;BME280;50936;51.660;5.616;2023-08-06T05:24:22;100030.53;;;27.43;50.56
64544;BME280;50936;51.660;5.616;2023-08-06T05:26:49;100036.06;;;27.43;50.90
64544;BME280;50936;51.660;5.616;2023-08-06T05:29:16;100039.72;;;27.44;50.98
64544;BME280;50936;51.660;5.616;2023-08-06T05:31:43;100040.31;;;27.46;50.82
64544;BME280;50936;51.660;5.616;2023-08-06T05:34:10;100043.31;;;27.44;51.03
64544;BME280;50936;51.660;5.616;2023-08-06T05:36:37;100038.63;;;27.45;50.95
64544;BME280;50936;51.660;5.616;2023-08-06T05:39:04;100044.16;;;27.45;51.00
64544;BME280;50936;51.660;5.616;2023-08-06T05:41:31;100048.03;;;27.44;51.12
64544;BME280;50936;51.660;5.616;2023-08-06T05:43:58;100056.97;;;27.46;51.07
64544;BME280;50936;51.660;5.616;2023-08-06T05:46:27;100059.50;;;27.48;51.09
64544;BME280;50936;51.660;5.616;2023-08-06T05:48:54;100060.34;;;27.48;51.29
64544;BME280;50936;51.660;5.616;2023-08-06T05:51:21;100063.34;;;27.46;51.19
64544;BME280;50936;51.660;5.616;2023-08-06T05:53:48;100060.34;;;27.48;51.30
64544;BME280;50936;51.660;5.616;2023-08-06T05:56:16;100065.28;;;27.46;51.26
64544;BME280;50936;51.660;5.616;2023-08-06T05:58:43;100071.44;;;27.48;51.32
64544;BME280;50936;51.660;5.616;2023-08-06T06:01:10;100064.16;;;27.47;51.31
64544;BME280;50936;51.660;5.616;2023-08-06T06:03:37;100078.66;;;27.49;51.42
64544;BME280;50936;51.660;5.616;2023-08-06T06:06:04;100078.19;;;27.52;51.29
64544;BME280;50936;51.660;5.616;2023-08-06T06:08:31;100079.25;;;27.51;51.37
64544;BME280;50936;51.660;5.616;2023-08-06T06:10:58;100094.81;;;27.52;51.55
64544;BME280;50936;51.660;5.616;2023-08-06T06:13:26;100097.59;;;27.52;51.67
64544;BME280;50936;51.660;5.616;2023-08-06T06:15:54;100093.75;;;27.53;51.66
64544;BME280;50936;51.660;5.616;2023-08-06T06:18:22;100095.66;;;27.53;51.71
64544;BME280;50936;51.660;5.616;2023-08-06T06:20:49;100102.69;;;27.55;51.64
64544;BME280;50936;51.660;5.616;2023-08-06T06:23:16;100104.84;;;27.53;51.75
64544;BME280;50936;51.660;5.616;2023-08-06T06:25:47;100109.28;;;27.54;51.78
64544;BME280;50936;51.660;5.616;2023-08-06T06:28:15;100115.44;;;27.56;51.56
64544;BME280;50936;51.660;5.616;2023-08-06T06:30:42;100117.38;;;27.56;51.63
64544;BME280;50936;51.660;5.616;2023-08-06T06:33:09;100119.78;;;27.52;51.66
64544;BME280;50936;51.660;5.616;2023-08-06T06:35:36;100119.91;;;27.57;51.63
64544;BME280;50936;51.660;5.616;2023-08-06T06:38:03;100113.78;;;27.55;51.92
64544;BME280;50936;51.660;5.616;2023-08-06T06:40:30;100125.47;;;27.57;51.59
64544;BME280;50936;51.660;5.616;2023-08-06T06:42:57;100125.94;;;27.54;51.80
64544;BME280;50936;51.660;5.616;2023-08-06T06:45:24;100128.09;;;27.52;52.00
64544;BME280;50936;51.660;5.616;2023-08-06T06:47:51;100129.31;;;27.56;51.86
64544;BME280;50936;51.660;5.616;2023-08-06T06:50:18;100123.75;;;27.56;51.77
64544;BME280;50936;51.660;5.616;2023-08-06T06:52:45;100127.63;;;27.55;51.90
64544;BME280;50936;51.660;5.616;2023-08-06T06:55:12;100126.75;;;27.55;51.77
64544;BME280;50936;51.660;5.616;2023-08-06T06:57:39;100129.31;;;27.56;51.66
64544;BME280;50936;51.660;5.616;2023-08-06T07:00:06;100132.09;;;27.56;51.91
64544;BME280;50936;51.660;5.616;2023-08-06T07:02:34;100135.34;;;27.53;51.81
64544;BME280;50936;51.660;5.616;2023-08-06T07:05:01;100138.22;;;27.58;51.85
64544;BME280;50936;51.660;5.616;2023-08-06T07:07:28;100147.66;;;27.57;51.65
64544;BME280;50936;51.660;5.616;2023-08-06T07:09:55;100134.84;;;27.56;51.79
64544;BME280;50936;51.660;5.616;2023-08-06T07:12:22;100142.72;;;27.59;51.69
64544;BME280;50936;51.660;5.616;2023-08-06T07:14:50;100147.44;;;27.59;51.84
64544;BME280;50936;51.660;5.616;2023-08-06T07:17:17;100143.78;;;27.58;51.70
64544;BME280;50936;51.660;5.616;2023-08-06T07:19:44;100149.31;;;27.58;51.87
64544;BME280;50936;51.660;5.616;2023-08-06T07:22:11;100144.28;;;27.55;51.67
64544;BME280;50936;51.660;5.616;2023-08-06T07:24:38;100150.66;;;27.56;51.77
64544;BME280;50936;51.660;5.616;2023-08-06T07:27:05;100142.09;;;27.57;51.78
64544;BME280;50936;51.660;5.616;2023-08-06T07:29:32;100158.75;;;27.57;51.59
64544;BME280;50936;51.660;5.616;2023-08-06T07:31:59;100161.28;;;27.59;51.44
64544;BME280;50936;51.660;5.616;2023-08-06T07:34:26;100158.75;;;27.57;51.56
64544;BME280;50936;51.660;5.616;2023-08-06T07:36:53;100164.91;;;27.59;51.44
64544;BME280;50936;51.660;5.616;2023-08-06T07:39:20;100157.91;;;27.57;51.42
64544;BME280;50936;51.660;5.616;2023-08-06T07:41:48;100169.38;;;27.60;51.36
64544;BME280;50936;51.660;5.616;2023-08-06T07:44:15;100169.84;;;27.57;51.56
64544;BME280;50936;51.660;5.616;2023-08-06T07:46:42;100165.97;;;27.58;51.38
64544;BME280;50936;51.660;5.616;2023-08-06T07:49:09;100169.63;;;27.59;51.47
64544;BME280;50936;51.660;5.616;2023-08-06T07:51:37;100173.69;;;27.56;51.44
64544;BME280;50936;51.660;5.616;2023-08-06T07:54:05;100170.31;;;27.54;51.23
64544;BME280;50936;51.660;5.616;2023-08-06T07:56:33;100173.69;;;27.56;51.38
64544;BME280;50936;51.660;5.616;2023-08-06T07:59:00;100181.78;;;27.58;51.32
64544;BME280;50936;51.660;5.616;2023-08-06T08:01:27;100178.78;;;27.59;51.42
64544;BME280;50936;51.660;5.616;2023-08-06T08:03:54;100175.00;;;27.54;51.11
64544;BME280;50936;51.660;5.616;2023-08-06T08:06:21;100180.94;;;27.57;51.38
64544;BME280;50936;51.660;5.616;2023-08-06T08:08:48;100180.56;;;27.54;51.14
64544;BME280;50936;51.660;5.616;2023-08-06T08:11:15;100180.94;;;27.57;51.09
64544;BME280;50936;51.660;5.616;2023-08-06T08:13:42;100187.31;;;27.58;51.16
64544;BME280;50936;51.660;5.616;2023-08-06T08:16:10;100193.59;;;27.53;51.24
64544;BME280;50936;51.660;5.616;2023-08-06T08:18:37;100199.75;;;27.55;51.32
64544;BME280;50936;51.660;5.616;2023-08-06T08:21:04;100210.84;;;27.55;51.26
64544;BME280;50936;51.660;5.616;2023-08-06T08:23:31;100219.75;;;27.57;51.35
64544;BME280;50936;51.660;5.616;2023-08-06T08:25:58;100213.59;;;27.55;51.09
64544;BME280;50936;51.660;5.616;2023-08-06T08:28:25;100228.69;;;27.59;50.96
64544;BME280;50936;51.660;5.616;2023-08-06T08:30:52;100223.00;;;27.54;51.16
64544;BME280;50936;51.660;5.616;2023-08-06T08:33:21;100229.38;;;27.55;51.06
64544;BME280;50936;51.660;5.616;2023-08-06T08:35:48;100236.88;;;27.54;51.34
64544;BME280;50936;51.660;5.616;2023-08-06T08:38:15;100238.56;;;27.55;51.12
64544;BME280;50936;51.660;5.616;2023-08-06T08:40:46;100242.63;;;27.53;50.94
64544;BME280;50936;51.660;5.616;2023-08-06T08:43:20;100248.78;;;27.55;51.13
64544;BME280;50936;51.660;5.616;2023-08-06T08:45:52;100249.66;;;27.55;50.78
64544;BME280;50936;51.660;5.616;2023-08-06T08:48:26;100242.88;;;27.51;50.99
64544;BME280;50936;51.660;5.616;2023-08-06T08:50:54;100243.97;;;27.50;51.01
64544;BME280;50936;51.660;5.616;2023-08-06T08:53:22;100238.88;;;27.47;50.85
64544;BME280;50936;51.660;5.616;2023-08-06T08:55:50;100251.66;;;27.48;51.10
64544;BME280;50936;51.660;5.616;2023-08-06T08:58:18;100250.56;;;27.49;50.86
64544;BME280;50936;51.660;5.616;2023-08-06T09:00:48;100255.66;;;27.52;50.88
64544;BME280;50936;51.660;5.616;2023-08-06T09:03:17;100261.06;;;27.47;50.85
64544;BME280;50936;51.660;5.616;2023-08-06T09:05:44;100263.84;;;27.47;50.94
64544;BME280;50936;51.660;5.616;2023-08-06T09:08:18;100263.84;;;27.47;51.23
64544;BME280;50936;51.660;5.616;2023-08-06T09:10:48;100268.31;;;27.48;50.87
64544;BME280;50936;51.660;5.616;2023-08-06T09:13:16;100269.38;;;27.47;50.85
64544;BME280;50936;51.660;5.616;2023-08-06T09:15:43;100276.25;;;27.44;50.65
64544;BME280;50936;51.660;5.616;2023-08-06T09:18:11;100277.09;;;27.45;50.82
64544;BME280;50936;51.660;5.616;2023-08-06T09:20:39;100277.53;;;27.42;50.94
64544;BME280;50936;51.660;5.616;2023-08-06T09:23:07;100275.41;;;27.44;50.51
64544;BME280;50936;51.660;5.616;2023-08-06T09:25:39;100275.41;;;27.44;50.80
64544;BME280;50936;51.660;5.616;2023-08-06T09:28:09;100278.41;;;27.42;50.67
64544;BME280;50936;51.660;5.616;2023-08-06T09:30:37;100279.25;;;27.43;50.74
64544;BME280;50936;51.660;5.616;2023-08-06T09:33:08;100284.78;;;27.43;50.80
64544;BME280;50936;51.660;5.616;2023-08-06T09:35:40;100295.50;;;27.39;50.96
64544;BME280;50936;51.660;5.616;2023-08-06T09:38:09;100292.50;;;27.41;50.73
64544;BME280;50936;51.660;5.616;2023-08-06T09:40:38;100297.44;;;27.39;50.64
64544;BME280;50936;51.660;5.616;2023-08-06T09:43:06;100296.34;;;27.40;50.70
64544;BME280;50936;51.660;5.616;2023-08-06T09:45:37;100303.59;;;27.41;50.72
64544;BME280;50936;51.660;5.616;2023-08-06T09:48:06;100296.34;;;27.40;50.70
64544;BME280;50936;51.660;5.616;2023-08-06T09:50:37;100296.34;;;27.40;50.68
64544;BME280;50936;51.660;5.616;2023-08-06T09:53:06;100310.44;;;27.38;50.58
64544;BME280;50936;51.660;5.616;2023-08-06T09:55:35;100305.75;;;27.39;50.57
64544;BME280;50936;51.660;5.616;2023-08-06T09:58:02;100308.53;;;27.39;50.71
64544;BME280;50936;51.660;5.616;2023-08-06T10:00:30;100304.97;;;27.32;50.55
64544;BME280;50936;51.660;5.616;2023-08-06T10:03:03;100316.84;;;27.39;50.48
64544;BME280;50936;51.660;5.616;2023-08-06T10:05:31;100311.75;;;27.36;50.79
64544;BME280;50936;51.660;5.616;2023-08-06T10:08:01;100305.75;;;27.39;50.77
64544;BME280;50936;51.660;5.616;2023-08-06T10:10:29;100306.19;;;27.36;50.36
64544;BME280;50936;51.660;5.616;2023-08-06T10:12:58;100313.47;;;27.37;50.43
64544;BME280;50936;51.660;5.616;2023-08-06T10:15:29;100312.59;;;27.36;50.70
64544;BME280;50936;51.660;5.616;2023-08-06T10:18:00;100314.53;;;27.36;50.58
64544;BME280;50936;51.660;5.616;2023-08-06T10:20:33;100312.34;;;27.38;50.35
64544;BME280;50936;51.660;5.616;2023-08-06T10:23:02;100314.75;;;27.34;50.64
64544;BME280;50936;51.660;5.616;2023-08-06T10:25:35;100313.91;;;27.34;50.64
64544;BME280;50936;51.660;5.616;2023-08-06T10:28:10;100307.91;;;27.37;50.38
64544;BME280;50936;51.660;5.616;2023-08-06T10:30:46;100316.22;;;27.37;50.48
64544;BME280;50936;51.660;5.616;2023-08-06T10:33:14;100310.44;;;27.38;50.48
64544;BME280;50936;51.660;5.616;2023-08-06T10:35:47;100314.06;;;27.39;50.25
64544;BME280;50936;51.660;5.616;2023-08-06T10:38:21;100313.47;;;27.37;50.54
64544;BME280;50936;51.660;5.616;2023-08-06T10:41:00;100327.06;;;27.38;50.41
64544;BME280;50936;51.660;5.616;2023-08-06T10:43:29;100322.38;;;27.39;50.43
64544;BME280;50936;51.660;5.616;2023-08-06T10:45:58;100325.16;;;27.39;50.50
64544;BME280;50936;51.660;5.616;2023-08-06T10:48:35;100330.09;;;27.37;50.40
64544;BME280;50936;51.660;5.616;2023-08-06T10:51:07;100328.16;;;27.37;50.52
64544;BME280;50936;51.660;5.616;2023-08-06T10:53:36;100334.53;;;27.38;50.36
64544;BME280;50936;51.660;5.616;2023-08-06T10:56:39;100333.38;;;27.45;50.24
64544;BME280;50936;51.660;5.616;2023-08-06T10:59:08;100341.09;;;27.43;50.21
64544;BME280;50936;51.660;5.616;2023-08-06T11:01:37;100333.47;;;27.39;50.41
64544;BME280;50936;51.660;5.616;2023-08-06T11:04:05;100350.72;;;27.41;50.14
64544;BME280;50936;51.660;5.616;2023-08-06T11:06:33;100352.88;;;27.39;50.28
64544;BME280;50936;51.660;5.616;2023-08-06T11:09:01;100350.94;;;27.39;50.26
64544;BME280;50936;51.660;5.616;2023-08-06T11:11:28;100344.09;;;27.42;50.28
64544;BME280;50936;51.660;5.616;2023-08-06T11:13:56;100358.44;;;27.39;50.12
64544;BME280;50936;51.660;5.616;2023-08-06T11:16:23;100354.34;;;27.41;50.08
64544;BME280;50936;51.660;5.616;2023-08-06T11:18:51;100366.28;;;27.42;50.18
64544;BME280;50936;51.660;5.616;2023-08-06T11:21:21;100366.53;;;27.40;50.30
64544;BME280;50936;51.660;5.616;2023-08-06T11:23:48;100366.28;;;27.42;50.08
64544;BME280;50936;51.660;5.616;2023-08-06T11:26:22;100370.75;;;27.43;50.05
64544;BME280;50936;51.660;5.616;2023-08-06T11:28:54;100362.44;;;27.43;50.06
64544;BME280;50936;51.660;5.616;2023-08-06T11:31:22;100365.66;;;27.40;50.06
64544;BME280;50936;51.660;5.616;2023-08-06T11:33:51;100375.69;;;27.41;50.08
64544;BME280;50936;51.660;5.616;2023-08-06T11:36:31;100376.06;;;27.44;50.24
64544;BME280;50936;51.660;5.616;2023-08-06T11:39:00;100377.84;;;27.39;50.15
64544;BME280;50936;51.660;5.616;2023-08-06T11:41:29;100379.75;;;27.38;50.22
64544;BME280;50936;51.660;5.616;2023-08-06T11:44:00;100388.47;;;27.42;50.02
64544;BME280;50936;51.660;5.616;2023-08-06T11:46:27;100388.47;;;27.42;50.07
64544;BME280;50936;51.660;5.616;2023-08-06T11:48:55;100387.38;;;27.43;49.91
64544;BME280;50936;51.660;5.616;2023-08-06T11:51:25;100394.47;;;27.39;50.02
64544;BME280;50936;51.660;5.616;2023-08-06T11:53:59;100405.09;;;27.42;49.93
64544;BME280;50936;51.660;5.616;2023-08-06T11:56:27;100388.06;;;27.38;49.92
64544;BME280;50936;51.660;5.616;2023-08-06T11:58:54;100400.63;;;27.41;50.05
64544;BME280;50936;51.660;5.616;2023-08-06T12:01:22;100404.25;;;27.41;49.59
64544;BME280;50936;51.660;5.616;2023-08-06T12:03:49;100404.25;;;27.41;49.80
64544;BME280;50936;51.660;5.616;2023-08-06T12:06:16;100408.97;;;27.41;49.98
64544;BME280;50936;51.660;5.616;2023-08-06T12:08:43;100405.56;;;27.39;50.03
64544;BME280;50936;51.660;5.616;2023-08-06T12:11:10;100410.63;;;27.42;49.80
64544;BME280;50936;51.660;5.616;2023-08-06T12:13:38;100411.13;;;27.39;49.79
64544;BME280;50936;51.660;5.616;2023-08-06T12:16:05;100405.09;;;27.42;49.75
64544;BME280;50936;51.660;5.616;2023-08-06T12:18:32;100414.50;;;27.41;49.72
64544;BME280;50936;51.660;5.616;2023-08-06T12:20:59;100417.06;;;27.42;49.88
64544;BME280;50936;51.660;5.616;2023-08-06T12:23:26;100423.88;;;27.40;49.93
64544;BME280;50936;51.660;5.616;2023-08-06T12:25:53;100426.66;;;27.40;49.74
64544;BME280;50936;51.660;5.616;2023-08-06T12:28:19;100426.03;;;27.38;49.80
64544;BME280;50936;51.660;5.616;2023-08-06T12:30:49;100427.28;;;27.42;49.66
64544;BME280;50936;51.660;5.616;2023-08-06T12:33:18;100429.44;;;27.40;49.52
64544;BME280;50936;51.660;5.616;2023-08-06T12:35:45;100436.69;;;27.41;49.78
64544;BME280;50936;51.660;5.616;2023-08-06T12:38:12;100443.06;;;27.41;49.68
64544;BME280;50936;51.660;5.616;2023-08-06T12:40:40;100442.22;;;27.41;49.66
64544;BME280;50936;51.660;5.616;2023-08-06T12:43:09;100440.53;;;27.40;49.63
64544;BME280;50936;51.660;5.616;2023-08-06T12:45:36;100444.16;;;27.40;49.52
64544;BME280;50936;51.660;5.616;2023-08-06T12:48:04;100443.53;;;27.38;49.73
64544;BME280;50936;51.660;5.616;2023-08-06T12:50:31;100446.06;;;27.40;49.58
64544;BME280;50936;51.660;5.616;2023-08-06T12:53:00;100445.00;;;27.41;49.67
64544;BME280;50936;51.660;5.616;2023-08-06T12:55:27;100447.78;;;27.41;49.57
64544;BME280;50936;51.660;5.616;2023-08-06T12:57:58;100455.00;;;27.42;49.74
64544;BME280;50936;51.660;5.616;2023-08-06T13:00:26;100455.00;;;27.42;49.57
64544;BME280;50936;51.660;5.616;2023-08-06T13:02:53;100455.00;;;27.42;49.65